Time;durP1;ratioP1;P1;durP2;ratioP2;P2;SDS_P1;SDS_P2;PMS_P1;PMS_P2;Temp;Humidity;BMP_temperature;BMP_pressure;BME280_temperature;BME280_humidity;BME280_pressure;Samples;Min_cycle;Max_cycle;Signal;HPM_P1;HPM_P2
2021/06/21 00:01:37;;;;;;;10.52;2.88;;;15.40;99.90;;;;;;5066100;28;20400;-87
2021/06/21 00:04:06;;;;;;;16.42;2.58;;;15.40;99.90;;;;;;5087670;28;20129;-88
2021/06/21 00:06:33;;;;;;;8.80;2.63;;;15.50;99.90;;;;;;5066207;28;20048;-87
2021/06/21 00:09:00;;;;;;;9.20;2.45;;;15.50;99.90;;;;;;5064022;28;20139;-87
2021/06/21 00:11:27;;;;;;;8.85;2.70;;;15.50;99.90;;;;;;5091780;28;20517;-87
2021/06/21 00:13:54;;;;;;;12.90;2.53;;;15.50;99.90;;;;;;5088765;28;20736;-87
2021/06/21 00:16:21;;;;;;;6.95;2.00;;;15.50;99.90;;;;;;5063364;28;20442;-87
2021/06/21 00:18:49;;;;;;;12.70;2.38;;;15.50;99.90;;;;;;5079131;28;20048;-87
2021/06/21 00:21:16;;;;;;;10.45;2.20;;;15.50;99.90;;;;;;5067519;28;20044;-87
2021/06/21 00:23:43;;;;;;;9.35;2.45;;;15.60;99.90;;;;;;5089016;28;20045;-87
2021/06/21 00:26:10;;;;;;;10.95;2.58;;;15.50;99.90;;;;;;5073946;28;20120;-87
2021/06/21 00:28:37;;;;;;;14.65;2.92;;;15.50;99.90;;;;;;5070029;28;20093;-85
2021/06/21 00:31:04;;;;;;;10.43;2.67;;;15.60;99.90;;;;;;5087713;28;20138;-86
2021/06/21 00:33:31;;;;;;;12.93;3.15;;;15.60;99.90;;;;;;5087318;28;20048;-87
2021/06/21 00:35:58;;;;;;;11.80;2.78;;;15.60;99.90;;;;;;5090753;28;20362;-85
2021/06/21 00:38:28;;;;;;;12.88;3.33;;;15.60;99.90;;;;;;5088551;28;20047;-86
2021/06/21 00:40:55;;;;;;;11.75;2.63;;;15.50;99.90;;;;;;5079692;28;20119;-86
2021/06/21 00:43:22;;;;;;;8.98;2.80;;;15.60;99.90;;;;;;5065630;28;20537;-86
2021/06/21 00:45:49;;;;;;;12.25;3.10;;;15.60;99.90;;;;;;5088674;28;20062;-86
2021/06/21 00:48:16;;;;;;;10.32;3.13;;;15.50;99.90;;;;;;5081369;28;20370;-85
2021/06/21 00:50:42;;;;;;;14.25;3.40;;;15.60;99.90;;;;;;5072268;28;20422;-86
2021/06/21 00:53:10;;;;;;;14.23;3.53;;;15.60;99.90;;;;;;5089568;28;20047;-84
2021/06/21 00:55:41;;;;;;;11.57;2.95;;;15.60;99.90;;;;;;5091409;28;20410;-85
2021/06/21 00:58:12;;;;;;;32.20;14.50;;;15.50;99.90;;;;;;5090044;28;20131;-85
2021/06/21 01:00:42;;;;;;;21.15;7.13;;;15.50;99.90;;;;;;5081927;28;20342;-85
2021/06/21 01:03:11;;;;;;;15.48;5.18;;;15.50;99.90;;;;;;5078749;28;20048;-87
2021/06/21 01:05:41;;;;;;;13.32;3.13;;;15.50;99.90;;;;;;5078713;28;20055;-87
2021/06/21 01:08:09;;;;;;;16.10;3.28;;;15.40;99.90;;;;;;5063210;28;20442;-86
2021/06/21 01:10:42;;;;;;;10.55;3.58;;;15.40;99.90;;;;;;5067971;28;20158;-86
2021/06/21 01:13:19;;;;;;;14.98;3.22;;;15.40;99.90;;;;;;5070343;28;20127;-87
2021/06/21 01:16:22;;;;;;;16.42;3.42;;;15.40;99.90;;;;;;5070648;28;20123;-86
2021/06/21 01:19:01;;;;;;;14.68;3.85;;;15.40;99.90;;;;;;5077762;28;20060;-86
2021/06/21 01:21:47;;;;;;;10.93;3.13;;;15.40;99.90;;;;;;5081198;28;20127;-86
2021/06/21 01:24:41;;;;;;;15.75;3.28;;;15.40;99.90;;;;;;5079797;28;20679;-85
2021/06/21 01:27:35;;;;;;;18.13;4.20;;;15.50;99.90;;;;;;5081930;28;20123;-87
2021/06/21 01:30:12;;;;;;;12.20;3.95;;;15.50;99.90;;;;;;5087770;28;20127;-86
2021/06/21 01:32:51;;;;;;;13.45;5.07;;;15.50;99.90;;;;;;5067624;28;20054;-85
2021/06/21 01:35:29;;;;;;;19.92;5.05;;;15.50;99.90;;;;;;5086331;28;20169;-86
2021/06/21 01:38:01;;;;;;;15.38;5.20;;;15.50;99.90;;;;;;5083137;28;20044;-87
2021/06/21 01:40:38;;;;;;;14.75;4.55;;;15.50;99.90;;;;;;5058962;28;20069;-88
2021/06/21 01:43:08;;;;;;;14.75;4.40;;;15.50;99.90;;;;;;5087248;28;20135;-87
2021/06/21 01:45:38;;;;;;;17.63;4.90;;;15.50;99.90;;;;;;5087784;28;20382;-86
2021/06/21 01:48:06;;;;;;;19.75;5.60;;;15.50;99.90;;;;;;5084130;28;20048;-85
2021/06/21 01:50:35;;;;;;;14.57;4.70;;;15.50;99.90;;;;;;5086091;28;20055;-86
2021/06/21 01:53:09;;;;;;;21.58;5.75;;;15.50;99.90;;;;;;5081609;28;20044;-87
2021/06/21 01:55:41;;;;;;;17.25;5.45;;;15.50;99.90;;;;;;5084627;28;20040;-88
2021/06/21 01:58:11;;;;;;;20.17;5.22;;;15.50;99.90;;;;;;5066700;28;20044;-87
2021/06/21 02:00:40;;;;;;;19.38;6.72;;;15.50;99.90;;;;;;5084388;28;20040;-85
2021/06/21 02:03:09;;;;;;;17.15;5.72;;;15.50;99.90;;;;;;5082157;28;20051;-87
2021/06/21 02:05:41;;;;;;;19.50;7.15;;;15.50;99.90;;;;;;5090393;28;20082;-87
2021/06/21 02:08:12;;;;;;;22.55;6.90;;;15.50;99.90;;;;;;5066704;28;20126;-87
2021/06/21 02:10:39;;;;;;;21.92;6.00;;;15.40;99.90;;;;;;5081240;28;20408;-88
2021/06/21 02:13:08;;;;;;;19.23;5.40;;;15.40;99.90;;;;;;5062048;28;20064;-88
2021/06/21 02:15:40;;;;;;;20.73;5.60;;;15.40;99.90;;;;;;5088643;28;20068;-87
2021/06/21 02:18:08;;;;;;;12.43;4.93;;;15.40;99.90;;;;;;5072495;28;20419;-86
2021/06/21 02:20:36;;;;;;;14.38;3.50;;;15.40;99.90;;;;;;5062215;28;21515;-87
2021/06/21 02:23:03;;;;;;;16.42;3.80;;;15.40;99.90;;;;;;5065765;28;20063;-86
2021/06/21 02:25:30;;;;;;;14.48;3.60;;;15.40;99.90;;;;;;5071845;28;20048;-87
2021/06/21 02:27:58;;;;;;;17.52;3.60;;;15.50;99.90;;;;;;5090019;28;20350;-86
2021/06/21 02:30:27;;;;;;;20.20;3.65;;;15.50;99.90;;;;;;5086900;28;20051;-87
2021/06/21 02:32:55;;;;;;;9.50;3.10;;;15.50;99.90;;;;;;5067296;28;20441;-87
2021/06/21 02:35:22;;;;;;;15.30;3.00;;;15.50;99.90;;;;;;5090517;28;20044;-87
2021/06/21 02:37:49;;;;;;;11.75;2.97;;;15.50;99.90;;;;;;5087994;28;20058;-86
2021/06/21 02:40:16;;;;;;;21.58;2.92;;;15.50;99.90;;;;;;5071779;28;20054;-85
2021/06/21 02:42:44;;;;;;;15.15;2.92;;;15.50;99.90;;;;;;5079353;28;20131;-87
2021/06/21 02:45:12;;;;;;;15.20;3.08;;;15.50;99.90;;;;;;5072334;28;20062;-86
2021/06/21 02:47:42;;;;;;;9.77;2.83;;;15.50;99.90;;;;;;5079938;28;20127;-86
2021/06/21 02:50:11;;;;;;;17.02;3.50;;;15.50;99.90;;;;;;5087185;28;20136;-86
2021/06/21 02:53:16;;;;;;;13.23;2.85;;;15.50;99.90;;;;;;5069491;28;20458;-85
2021/06/21 02:56:29;;;;;;;12.70;2.92;;;15.50;99.90;;;;;;5088921;28;20360;-87
2021/06/21 02:59:18;;;;;;;13.68;2.75;;;15.60;99.90;;;;;;5070246;28;20048;-85
2021/06/21 03:01:50;;;;;;;11.68;3.08;;;15.60;99.90;;;;;;5085958;28;20054;-85
2021/06/21 03:04:20;;;;;;;11.10;3.00;;;15.60;99.90;;;;;;5084302;28;20040;-86
2021/06/21 03:06:50;;;;;;;11.88;3.10;;;15.70;99.90;;;;;;5081520;28;20513;-87
2021/06/21 03:09:21;;;;;;;13.40;3.08;;;15.60;99.90;;;;;;5082169;28;20083;-86
2021/06/21 03:11:51;;;;;;;15.02;3.28;;;15.60;99.90;;;;;;5070708;28;20048;-85
2021/06/21 03:14:24;;;;;;;10.10;2.25;;;15.60;99.90;;;;;;5087422;28;20135;-85
2021/06/21 03:16:55;;;;;;;17.27;3.47;;;15.60;99.90;;;;;;5086564;28;20087;-86
2021/06/21 03:19:23;;;;;;;11.20;3.03;;;15.50;99.90;;;;;;5087885;28;20470;-86
2021/06/21 03:21:50;;;;;;;11.07;3.08;;;15.50;99.90;;;;;;5067087;28;20055;-85
2021/06/21 03:24:25;;;;;;;15.38;2.78;;;15.50;99.90;;;;;;5078741;28;20045;-86
2021/06/21 03:26:53;;;;;;;12.50;3.20;;;15.50;99.90;;;;;;5093315;28;20083;-85
2021/06/21 03:29:21;;;;;;;13.85;2.80;;;15.40;99.90;;;;;;5084287;28;20467;-86
2021/06/21 03:31:51;;;;;;;14.18;2.50;;;15.50;99.90;;;;;;5075895;28;20147;-85
2021/06/21 03:34:19;;;;;;;14.15;3.08;;;15.50;99.90;;;;;;5064536;28;20124;-86
2021/06/21 03:36:47;;;;;;;12.73;2.90;;;15.50;99.90;;;;;;5074298;28;20054;-86
2021/06/21 03:39:14;;;;;;;12.25;2.58;;;15.50;99.90;;;;;;5086110;28;20777;-85
2021/06/21 03:41:41;;;;;;;15.75;2.95;;;15.50;99.90;;;;;;5067813;28;20080;-86
2021/06/21 03:44:08;;;;;;;11.48;2.67;;;15.50;99.90;;;;;;5084739;28;20064;-86
2021/06/21 03:46:35;;;;;;;9.52;2.50;;;15.50;99.90;;;;;;5068995;28;20048;-85
2021/06/21 03:49:02;;;;;;;12.63;2.70;;;15.50;99.90;;;;;;5088142;28;20049;-86
2021/06/21 03:51:29;;;;;;;12.63;3.50;;;15.50;99.90;;;;;;5086448;28;20131;-86
2021/06/21 03:53:56;;;;;;;16.58;2.95;;;15.50;99.90;;;;;;5088811;28;20059;-86
2021/06/21 03:56:25;;;;;;;11.50;2.55;;;15.50;99.90;;;;;;5093824;28;20451;-87
2021/06/21 03:58:57;;;;;;;16.60;2.60;;;15.50;99.90;;;;;;5069782;28;20063;-86
2021/06/21 04:01:24;;;;;;;13.17;3.20;;;15.50;99.90;;;;;;5053118;28;20046;-86
2021/06/21 04:03:55;;;;;;;18.15;3.55;;;15.50;99.90;;;;;;5087130;28;20306;-86
2021/06/21 04:06:22;;;;;;;15.52;3.00;;;15.60;99.90;;;;;;5067026;28;20089;-86
2021/06/21 04:08:51;;;;;;;13.38;2.88;;;15.60;99.90;;;;;;5058772;28;20135;-86
2021/06/21 04:11:18;;;;;;;10.02;2.90;;;15.50;99.90;;;;;;5091217;28;20066;-86
2021/06/21 04:13:45;;;;;;;14.50;2.90;;;15.60;99.90;;;;;;5091276;28;20386;-87
2021/06/21 04:16:15;;;;;;;16.05;3.75;;;15.60;99.90;;;;;;5085739;28;20131;-85
2021/06/21 04:18:42;;;;;;;11.80;2.63;;;15.60;99.90;;;;;;5064708;28;20044;-85
2021/06/21 04:21:10;;;;;;;10.93;3.05;;;15.50;99.90;;;;;;5072711;28;20116;-87
2021/06/21 04:24:00;;;;;;;18.88;5.57;;;15.60;99.90;;;;;;5091289;28;20445;-86
2021/06/21 04:34:47;;;;;;;9.65;3.47;;;15.60;99.90;;;;;;4939422;28;20055;-85
2021/06/21 04:37:16;;;;;;;12.90;3.60;;;15.50;99.90;;;;;;5009807;28;20044;-85
2021/06/21 04:39:42;;;;;;;17.83;3.17;;;15.50;99.90;;;;;;5088123;28;20048;-85
2021/06/21 04:42:09;;;;;;;11.50;3.33;;;15.50;99.90;;;;;;5072992;28;20138;-85
2021/06/21 04:44:37;;;;;;;12.20;2.65;;;15.50;99.90;;;;;;5068077;28;20063;-85
2021/06/21 04:47:05;;;;;;;13.15;3.00;;;15.50;99.90;;;;;;5080196;28;20047;-84
2021/06/21 04:49:34;;;;;;;12.95;3.40;;;15.60;99.90;;;;;;5072230;28;20479;-85
2021/06/21 04:52:01;;;;;;;19.42;3.05;;;15.60;99.90;;;;;;5085854;28;20135;-85
2021/06/21 04:54:29;;;;;;;15.45;2.35;;;15.60;99.90;;;;;;5085805;28;20089;-86
2021/06/21 04:56:56;;;;;;;14.05;3.38;;;15.60;99.90;;;;;;5089149;28;20074;-86
2021/06/21 04:59:22;;;;;;;14.98;3.50;;;15.70;99.90;;;;;;5090061;28;20040;-87
2021/06/21 05:01:50;;;;;;;14.40;3.38;;;15.70;99.90;;;;;;5084010;28;20117;-86
2021/06/21 05:04:17;;;;;;;13.73;2.90;;;15.80;99.90;;;;;;5089465;28;20064;-87
2021/06/21 05:06:43;;;;;;;13.23;2.85;;;15.80;99.90;;;;;;5092778;28;20075;-87
2021/06/21 05:09:12;;;;;;;9.77;2.78;;;15.90;99.90;;;;;;5072366;28;20131;-88
2021/06/21 05:11:41;;;;;;;13.82;2.72;;;15.90;99.90;;;;;;5069429;28;20136;-89
2021/06/21 05:14:08;;;;;;;13.18;3.42;;;16.10;99.90;;;;;;5070746;28;20040;-90
2021/06/21 05:16:35;;;;;;;12.75;2.88;;;16.20;99.90;;;;;;5073641;28;20120;-86
2021/06/21 05:19:01;;;;;;;8.85;2.58;;;16.30;99.90;;;;;;5089331;28;20132;-88
2021/06/21 05:21:31;;;;;;;15.80;2.90;;;16.40;99.90;;;;;;5057453;28;20043;-91
2021/06/21 05:23:58;;;;;;;10.70;2.50;;;16.50;99.90;;;;;;5068702;28;20135;-89
2021/06/21 05:26:25;;;;;;;16.33;2.65;;;16.50;99.90;;;;;;5086578;28;20051;-89
2021/06/21 05:28:54;;;;;;;11.18;2.38;;;16.60;99.90;;;;;;5070461;28;20062;-88
2021/06/21 05:31:21;;;;;;;8.50;2.45;;;16.70;99.90;;;;;;5090272;28;20076;-88
2021/06/21 05:33:50;;;;;;;12.18;2.92;;;16.80;99.90;;;;;;5081684;28;20055;-91
2021/06/21 05:36:25;;;;;;;10.70;2.35;;;16.90;99.90;;;;;;5093464;28;20418;-89
2021/06/21 05:43:23;;;;;;;;;;;;;;;;;;;;;
2021/06/21 05:50:50;;;;;;;;;;;;;;;;;;;;;
2021/06/21 05:58:03;;;;;;;;;;;;;;;;;;;;;
2021/06/21 06:15:41;;;;;;;12.30;2.00;;;18.40;99.90;;;;;;4837564;29;20106;-90
2021/06/21 06:18:48;;;;;;;;;;;;;;;;;;;;;
2021/06/21 06:26:08;;;;;;;;;;;;;;;;;;;;;
2021/06/21 06:28:56;;;;;;;10.43;2.22;;;18.40;99.90;;;;;;4881367;29;20068;-92
2021/06/21 06:36:01;;;;;;;11.32;2.05;;;19.00;99.90;;;;;;4823266;29;20053;-92
2021/06/21 06:38:55;;;;;;;10.10;2.08;;;19.20;99.90;;;;;;4864783;29;20049;-92
2021/06/21 06:42:44;;;;;;;5.27;1.73;;;19.40;99.90;;;;;;4896443;29;20044;-92
2021/06/21 06:46:12;;;;;;;;;;;;;;;;;;;;;
2021/06/21 06:49:09;;;;;;;12.35;2.42;;;19.70;99.90;;;;;;4832084;29;20049;-91
2021/06/21 06:53:00;;;;;;;11.55;2.55;;;19.60;99.90;;;;;;4800698;29;20081;-88
2021/06/21 06:59:07;;;;;;;7.80;2.30;;;19.70;99.90;;;;;;4854931;29;20042;-89
2021/06/21 07:02:23;;;;;;;;;;;;;;;;;;;;;
2021/06/21 07:08:56;;;;;;;;;;;;;;;;;;;;;
2021/06/21 07:12:21;;;;;;;7.10;1.73;;;20.20;99.90;;;;;;4937558;29;20055;-92
2021/06/21 07:48:44;;;;;;;;;;;;;;;;;;;;;
2021/06/21 07:52:40;;;;;;;;;;;;;;;;;;;;;
2021/06/21 07:56:05;;;;;;;;;;;;;;;;;;;;;
2021/06/21 07:58:59;;;;;;;8.55;1.80;;;21.40;99.90;;;;;;5807211;24;20015;-90
2021/06/21 08:01:27;;;;;;;6.20;1.42;;;21.60;99.90;;;;;;6000149;22;20020;-93
2021/06/21 08:04:24;;;;;;;5.45;1.45;;;21.90;99.90;;;;;;6162430;23;20036;-93
2021/06/21 08:07:05;;;;;;;4.63;1.60;;;22.20;99.90;;;;;;6074859;23;20023;-90
2021/06/21 08:09:55;;;;;;;8.23;1.50;;;22.30;99.90;;;;;;6160335;23;20017;-91
2021/06/21 08:15:46;;;;;;;8.90;1.80;;;21.50;99.90;;;;;;6163005;23;20412;-89
2021/06/21 08:18:25;;;;;;;3.50;1.50;;;21.30;99.90;;;;;;6137947;23;20049;-92
2021/06/21 08:21:25;;;;;;;5.68;1.30;;;21.00;99.90;;;;;;6160209;23;20035;-91
2021/06/21 08:32:15;;;;;;;9.60;1.73;;;22.40;99.90;;;;;;5886976;24;20048;-93
2021/06/21 08:34:57;;;;;;;7.85;1.60;;;22.80;99.90;;;;;;5903147;23;20019;-94
2021/06/21 08:45:49;;;;;;;;;;;;;;;;;;;;;
2021/06/21 08:49:05;;;;;;;5.68;1.33;;;24.10;99.90;;;;;;5798764;24;20050;-94
2021/06/21 08:55:48;;;;;;;;;;;;;;;;;;;;;
2021/06/21 09:01:53;;;;;;;4.35;1.10;;;24.50;97.00;;;;;;5854588;24;20101;-93
2021/06/21 09:04:22;;;;;;;5.28;1.52;;;25.30;97.30;;;;;;5947891;23;20044;-92
2021/06/21 09:07:23;;;;;;;7.47;1.55;;;26.00;94.50;;;;;;6095423;23;20026;-92
2021/06/21 09:10:08;;;;;;;6.55;1.38;;;26.10;93.40;;;;;;6188176;23;20086;-94
2021/06/21 09:13:19;;;;;;;4.45;1.30;;;25.60;91.80;;;;;;6212599;23;20678;-90
2021/06/21 09:16:04;;;;;;;9.48;1.40;;;25.60;91.20;;;;;;6188746;23;20052;-93
2021/06/21 09:18:44;;;;;;;5.05;1.60;;;25.90;91.30;;;;;;6212709;23;20025;-91
2021/06/21 09:25:30;;;;;;;;;;;;;;;;;;;;;
2021/06/21 09:28:59;;;;;;;;;;;;;;;;;;;;;
2021/06/21 09:32:01;;;;;;;7.55;1.10;;;26.70;90.90;;;;;;6098048;23;20018;-93
2021/06/21 09:34:30;;;;;;;;;;;27.30;82.20;;;;;;6091935;23;20033;-89
2021/06/21 09:37:20;;;;;;;7.53;1.65;;;26.70;84.10;;;;;;6200746;23;20362;-89
2021/06/21 09:39:53;;;;;;;7.10;1.38;;;27.10;81.10;;;;;;6230371;23;20048;-90
2021/06/21 09:42:23;;;;;;;6.10;1.52;;;27.50;81.90;;;;;;6186982;23;20016;-90
2021/06/21 09:45:44;;;;;;;;;;;;;;;;;;;;;
2021/06/21 09:48:39;;;;;;;7.10;1.52;;;27.70;78.10;;;;;;6141952;23;20055;-92
2021/06/21 09:51:51;;;;;;;3.60;1.10;;;28.40;77.10;;;;;;6212381;23;20017;-91
2021/06/21 09:54:21;;;;;;;5.40;1.58;;;29.00;70.30;;;;;;6183949;23;20028;-91
2021/06/21 09:57:01;;;;;;;4.90;1.27;;;28.30;72.40;;;;;;6217700;23;20404;-89
2021/06/21 10:03:32;;;;;;;2.40;1.23;;;28.40;70.40;;;;;;6199761;23;20412;-92
2021/06/21 10:06:04;;;;;;;5.07;1.45;;;28.90;70.10;;;;;;6190548;23;20119;-93
2021/06/21 10:08:52;;;;;;;6.03;1.30;;;29.30;68.40;;;;;;6212049;23;20040;-92
2021/06/21 10:11:46;;;;;;;3.55;1.45;;;28.70;70.70;;;;;;6199102;23;20024;-92
2021/06/21 10:14:41;;;;;;;7.90;2.03;;;28.70;67.10;;;;;;6077448;23;20603;-91
2021/06/21 10:17:14;;;;;;;4.07;1.30;;;28.80;66.60;;;;;;6069749;23;20109;-90
2021/06/21 10:19:42;;;;;;;4.43;1.40;;;28.70;67.80;;;;;;6197219;23;20040;-91
2021/06/21 10:22:13;;;;;;;3.10;1.20;;;29.30;67.40;;;;;;6188210;23;20020;-92
2021/06/21 10:24:44;;;;;;;3.58;1.30;;;29.70;65.80;;;;;;6195011;23;20061;-92
2021/06/21 10:27:11;;;;;;;4.05;1.02;;;29.80;61.60;;;;;;6218189;23;20368;-92
2021/06/21 10:29:54;;;;;;;4.77;1.30;;;29.80;64.00;;;;;;6191854;23;20091;-95
2021/06/21 10:32:23;;;;;;;6.30;1.30;;;29.20;64.20;;;;;;6220259;23;20021;-92
2021/06/21 10:34:54;;;;;;;3.88;1.58;;;28.80;69.10;;;;;;6214535;23;20040;-92
2021/06/21 10:37:25;;;;;;;3.45;1.25;;;28.80;63.70;;;;;;6214265;23;20086;-93
2021/06/21 10:40:08;;;;;;;4.22;1.30;;;28.90;67.50;;;;;;6213621;23;20036;-93
2021/06/21 10:42:57;;;;;;;6.25;1.20;;;29.80;66.10;;;;;;6217261;23;20055;-93
2021/06/21 10:45:37;;;;;;;4.90;1.10;;;30.50;58.80;;;;;;6216638;23;20013;-94
2021/06/21 10:48:10;;;;;;;4.28;0.90;;;30.60;56.50;;;;;;6189527;23;20017;-93
2021/06/21 10:50:51;;;;;;;2.28;1.00;;;30.70;56.00;;;;;;6188896;23;20021;-90
2021/06/21 10:53:21;;;;;;;3.17;1.17;;;31.00;56.30;;;;;;6187642;23;20023;-90
2021/06/21 10:55:52;;;;;;;5.10;1.42;;;31.10;58.00;;;;;;6212101;23;20094;-91
2021/06/21 10:58:22;;;;;;;4.32;1.10;;;31.70;53.80;;;;;;6212607;23;20091;-92
2021/06/21 11:00:51;;;;;;;4.43;1.13;;;31.40;54.10;;;;;;6187527;23;20390;-91
2021/06/21 11:03:23;;;;;;;4.07;1.00;;;31.10;53.00;;;;;;6212046;23;20112;-92
2021/06/21 11:05:58;;;;;;;2.83;0.95;;;31.40;54.00;;;;;;6211746;23;20264;-91
2021/06/21 11:08:47;;;;;;;4.18;1.33;;;32.40;53.00;;;;;;6213363;23;20051;-91
2021/06/21 11:11:35;;;;;;;3.08;1.02;;;32.60;50.30;;;;;;6186930;23;20083;-91
2021/06/21 11:14:14;;;;;;;4.30;1.00;;;32.70;51.20;;;;;;6211743;23;20428;-93
2021/06/21 11:16:42;;;;;;;3.17;0.88;;;32.00;51.40;;;;;;6186191;23;20261;-91
2021/06/21 11:19:24;;;;;;;1.52;0.80;;;31.60;54.70;;;;;;6212121;23;20032;-91
2021/06/21 11:21:58;;;;;;;3.38;1.00;;;32.20;56.80;;;;;;6211490;23;20024;-91
2021/06/21 11:24:40;;;;;;;2.90;1.10;;;33.00;47.30;;;;;;6211185;23;20075;-92
2021/06/21 11:27:39;;;;;;;4.47;1.17;;;32.90;48.30;;;;;;6211946;23;20024;-94
2021/06/21 11:30:38;;;;;;;3.65;1.08;;;33.60;47.30;;;;;;6212459;23;20024;-92
2021/06/21 11:33:23;;;;;;;2.97;1.20;;;33.30;48.10;;;;;;6211966;23;20016;-91
2021/06/21 11:36:04;;;;;;;1.48;0.65;;;33.10;48.20;;;;;;6213356;23;20043;-91
2021/06/21 11:38:38;;;;;;;3.03;0.80;;;33.40;47.20;;;;;;6212228;23;20294;-92
2021/06/21 11:41:18;;;;;;;3.47;0.70;;;33.90;47.00;;;;;;6212546;23;20020;-91
2021/06/21 11:44:04;;;;;;;1.65;0.70;;;34.90;43.80;;;;;;6211339;23;20384;-93
2021/06/21 11:46:39;;;;;;;1.10;0.70;;;35.50;42.40;;;;;;6185815;23;20027;-90
2021/06/21 11:49:14;;;;;;;1.23;0.70;;;35.30;40.40;;;;;;6186015;23;20440;-90
2021/06/21 11:51:59;;;;;;;2.13;1.10;;;35.20;44.40;;;;;;6186314;23;20017;-92
2021/06/21 11:54:32;;;;;;;3.33;0.90;;;35.30;40.70;;;;;;6211778;23;20024;-91
2021/06/21 11:57:05;;;;;;;2.15;0.82;;;35.30;42.50;;;;;;6186306;23;20345;-92
2021/06/21 12:00:04;;;;;;;;;;;;;;;;;;;;;
2021/06/21 12:02:36;;;;;;;1.95;0.90;;;34.20;45.00;;;;;;6211776;23;20091;-90
2021/06/21 12:05:15;;;;;;;4.45;0.95;;;33.60;44.20;;;;;;6186528;23;20086;-90
2021/06/21 12:07:45;;;;;;;1.20;0.82;;;33.50;45.90;;;;;;6212563;23;20048;-92
2021/06/21 12:10:16;;;;;;;0.95;0.68;;;34.40;48.10;;;;;;6185626;23;20033;-92
2021/06/21 12:12:46;;;;;;;3.97;0.82;;;35.30;39.10;;;;;;6214374;23;20078;-89
2021/06/21 12:15:16;;;;;;;2.67;0.77;;;35.10;40.30;;;;;;6188506;23;20087;-89
2021/06/21 12:17:43;;;;;;;3.22;0.85;;;34.90;40.40;;;;;;6188924;23;20056;-93
2021/06/21 12:20:19;;;;;;;1.15;0.60;;;34.50;41.70;;;;;;6187727;23;20035;-93
2021/06/21 12:23:03;;;;;;;1.80;0.88;;;34.80;45.40;;;;;;6189509;23;20032;-91
2021/06/21 12:25:47;;;;;;;1.67;0.73;;;35.60;40.70;;;;;;6211910;23;20036;-90
2021/06/21 12:28:55;;;;;;;3.47;0.90;;;36.10;40.50;;;;;;6213866;23;20091;-93
2021/06/21 12:35:31;;;;;;;3.50;1.45;;;36.80;37.80;;;;;;6214672;23;20043;-93
2021/06/21 12:38:26;;;;;;;;;;;;;;;;;;;;;
2021/06/21 12:41:21;;;;;;;17.13;1.58;;;34.80;39.80;;;;;;6126431;23;20030;-91
2021/06/21 12:44:24;;;;;;;2.75;0.70;;;34.30;40.70;;;;;;6120381;23;20740;-92
2021/06/21 12:46:51;;;;;;;1.85;0.70;;;34.60;42.30;;;;;;6095325;23;20032;-92
2021/06/21 12:49:28;;;;;;;2.45;0.75;;;34.50;40.20;;;;;;6121430;23;20029;-90
2021/06/21 12:53:20;;;;;;;;;;;;;;;;;;;;;
2021/06/21 12:55:50;;;;;;;2.97;0.80;;;35.20;40.70;;;;;;6086339;23;20105;-92
2021/06/21 12:58:51;;;;;;;2.97;0.98;;;35.80;38.70;;;;;;6121197;23;20033;-91
2021/06/21 13:01:36;;;;;;;3.95;0.75;;;35.70;38.40;;;;;;6121305;23;20693;-90
2021/06/21 13:04:18;;;;;;;8.77;1.05;;;36.10;38.00;;;;;;6121297;23;20029;-91
2021/06/21 13:18:06;;;;;;;3.08;0.80;;;36.80;40.60;;;;;;6036105;23;20347;-92
2021/06/21 13:20:53;;;;;;;3.00;0.93;;;37.90;40.30;;;;;;6044699;23;20018;-90
2021/06/21 13:31:56;;;;;;;;;;;;;;;;;;;;;
2021/06/21 13:35:14;;;;;;;4.45;0.60;;;39.70;33.60;;;;;;6033060;23;20575;-91
2021/06/21 13:37:58;;;;;;;3.33;0.70;;;39.50;33.50;;;;;;6012096;23;20328;-91
2021/06/21 13:40:54;;;;;;;1.98;0.73;;;39.50;35.90;;;;;;5922066;24;20044;-89
2021/06/21 13:43:33;;;;;;;4.35;0.90;;;39.30;33.50;;;;;;5922508;24;20127;-91
2021/06/21 13:46:21;;;;;;;2.17;1.00;;;39.20;34.40;;;;;;5921813;24;20064;-88
2021/06/21 13:49:12;;;;;;;2.10;0.90;;;38.60;34.10;;;;;;5921802;24;20100;-93
2021/06/21 13:52:12;;;;;;;1.85;0.93;;;37.40;38.90;;;;;;5920680;24;20028;-91
2021/06/21 13:54:54;;;;;;;1.67;0.70;;;36.80;39.60;;;;;;5926643;24;20541;-91
2021/06/21 13:57:36;;;;;;;2.38;0.88;;;37.40;39.90;;;;;;6021384;23;20434;-89
2021/06/21 14:00:38;;;;;;;2.95;1.20;;;37.40;36.40;;;;;;6200550;23;20028;-89
2021/06/21 14:03:22;;;;;;;4.03;0.93;;;38.30;36.00;;;;;;6213575;23;20028;-90
2021/06/21 14:05:51;;;;;;;3.50;1.58;;;38.70;37.10;;;;;;6186597;23;20301;-89
2021/06/21 14:08:18;;;;;;;4.30;3.75;;;38.50;36.30;;;;;;6211013;23;20124;-92
2021/06/21 14:17:59;;;;;;;5.20;2.50;;;32.70;44.50;;;;;;6120220;23;20021;-92
2021/06/21 14:20:29;;;;;;;5.90;5.13;;;31.50;47.50;;;;;;6214573;23;20265;-92
2021/06/21 14:22:56;;;;;;;8.35;3.75;;;30.70;48.70;;;;;;6186122;23;20028;-89
2021/06/21 14:25:23;;;;;;;2.95;1.05;;;30.10;51.10;;;;;;6164583;23;20044;-90
2021/06/21 14:27:51;;;;;;;3.90;1.27;;;29.40;53.80;;;;;;6166470;23;20032;-92
2021/06/21 14:30:18;;;;;;;3.50;1.30;;;29.10;54.50;;;;;;6164567;23;20031;-91
2021/06/21 14:32:49;;;;;;;3.55;1.38;;;29.00;55.50;;;;;;6162545;23;20091;-91
2021/06/21 14:35:17;;;;;;;5.20;1.55;;;29.50;55.50;;;;;;6213416;23;20028;-86
2021/06/21 14:40:58;;;;;;;2.88;1.02;;;32.70;52.70;;;;;;6177417;23;20099;-95
2021/06/21 14:43:29;;;;;;;8.45;6.47;;;34.10;48.70;;;;;;6212394;23;20021;-90
2021/06/21 14:45:57;;;;;;;3.10;1.33;;;34.60;47.70;;;;;;6213014;23;20082;-88
2021/06/21 14:48:26;;;;;;;3.60;1.20;;;34.60;46.10;;;;;;6186350;23;20021;-90
2021/06/21 14:51:00;;;;;;;5.13;1.20;;;34.50;45.20;;;;;;6212895;23;20316;-91
2021/06/21 14:53:27;;;;;;;2.85;1.30;;;34.50;46.30;;;;;;6186731;23;20024;-88
2021/06/21 14:55:56;;;;;;;2.33;1.30;;;34.60;46.00;;;;;;6186427;23;20060;-88
2021/06/21 14:58:23;;;;;;;1.70;1.10;;;34.60;45.50;;;;;;6212764;23;20052;-93
2021/06/21 15:00:53;;;;;;;5.07;1.42;;;33.50;46.50;;;;;;6213844;23;20028;-88
2021/06/21 15:03:22;;;;;;;6.60;1.40;;;32.10;50.00;;;;;;6213660;23;20068;-90
2021/06/21 15:05:51;;;;;;;11.20;1.75;;;30.80;52.40;;;;;;6213430;23;20024;-89
2021/06/21 15:08:23;;;;;;;4.30;1.60;;;29.70;55.00;;;;;;6188856;23;20023;-89
2021/06/21 15:10:50;;;;;;;3.77;1.23;;;29.00;56.30;;;;;;6188423;23;20032;-87
2021/06/21 15:13:18;;;;;;;9.27;2.35;;;28.50;57.80;;;;;;6212383;23;20060;-89
2021/06/21 15:15:45;;;;;;;12.00;9.43;;;29.10;57.60;;;;;;6212280;23;20443;-87
2021/06/21 15:18:13;;;;;;;6.22;3.47;;;30.50;55.10;;;;;;6211821;23;20025;-87
2021/06/21 15:20:40;;;;;;;3.70;2.47;;;31.60;53.20;;;;;;6213186;23;20024;-89
2021/06/21 15:23:13;;;;;;;2.97;1.52;;;32.40;50.70;;;;;;6218287;23;20075;-87
2021/06/21 15:25:43;;;;;;;6.05;1.40;;;33.10;50.50;;;;;;6185078;23;20020;-91
2021/06/21 15:28:12;;;;;;;5.70;1.25;;;33.70;48.50;;;;;;6186444;23;20083;-89
2021/06/21 15:30:39;;;;;;;4.10;1.23;;;33.90;48.00;;;;;;6212603;23;20020;-90
2021/06/21 15:33:06;;;;;;;3.08;0.98;;;33.80;47.10;;;;;;6187771;23;20024;-94
2021/06/21 15:35:46;;;;;;;5.22;1.38;;;34.00;47.70;;;;;;6191733;23;20039;-94
2021/06/21 15:38:27;;;;;;;5.07;1.60;;;33.30;47.20;;;;;;6203596;23;20058;-92
2021/06/21 15:40:57;;;;;;;3.60;1.58;;;31.70;50.40;;;;;;6212135;23;20044;-90
2021/06/21 15:43:25;;;;;;;4.70;1.52;;;30.50;53.40;;;;;;6190901;23;20035;-92
2021/06/21 15:46:11;;;;;;;3.22;1.30;;;29.90;55.90;;;;;;6216282;23;20024;-92
2021/06/21 15:49:00;;;;;;;5.90;1.25;;;29.30;56.50;;;;;;6217539;23;20423;-94
2021/06/21 15:51:59;;;;;;;4.75;1.90;;;28.80;57.60;;;;;;6216966;23;20296;-91
2021/06/21 16:02:19;;;;;;;2.95;1.70;;;28.00;60.20;;;;;;6216322;23;20571;-92
2021/06/21 16:05:16;;;;;;;5.25;2.72;;;27.70;62.40;;;;;;6191877;23;20435;-92
2021/06/21 16:08:21;;;;;;;4.70;1.73;;;27.20;65.00;;;;;;6217004;23;20093;-92
2021/06/21 16:11:17;;;;;;;;;;;;;;;;;;;;;
2021/06/21 16:14:59;;;;;;;5.05;1.85;;;26.30;66.00;;;;;;6217059;23;20044;-94
2021/06/21 16:17:46;;;;;;;3.08;1.38;;;26.00;67.20;;;;;;6216594;23;20028;-94
2021/06/21 16:20:29;;;;;;;6.00;1.17;;;25.80;68.90;;;;;;6217887;23;20024;-93
2021/06/21 16:23:08;;;;;;;6.50;1.35;;;25.60;69.60;;;;;;6218155;23;20040;-94
2021/06/21 16:26:00;;;;;;;;;;;;;;;;;;;;;
2021/06/21 16:32:07;;;;;;;2.40;1.40;;;25.30;73.70;;;;;;6213675;23;20352;-93
2021/06/21 16:34:46;;;;;;;5.05;2.03;;;25.10;72.90;;;;;;6197402;23;20092;-90
2021/06/21 16:37:28;;;;;;;4.53;2.58;;;25.00;74.20;;;;;;6221859;23;20029;-93
2021/06/21 16:40:29;;;;;;;8.00;1.98;;;24.90;75.50;;;;;;6220489;23;20063;-92
2021/06/21 16:43:48;;;;;;;5.20;2.05;;;24.80;75.30;;;;;;6199133;23;20078;-92
2021/06/21 16:47:07;;;;;;;5.30;1.67;;;24.80;76.30;;;;;;6218875;23;20098;-90
2021/06/21 16:49:37;;;;;;;4.40;1.83;;;24.70;76.00;;;;;;6175370;23;20059;-92
2021/06/21 16:52:05;;;;;;;6.22;1.73;;;24.70;78.30;;;;;;6231160;23;20021;-91
2021/06/21 16:54:38;;;;;;;3.97;1.80;;;24.60;78.80;;;;;;6228721;23;20016;-92